sensor_id;sensor_type;location;lat;lon;timestamp;P1;durP1;ratioP1;P2;durP2;ratioP2
27728;SDS011;15126;42.186;24.340;2022-07-06T00:00:59;10.33;;;7.60;;
27728;SDS011;15126;42.186;24.340;2022-07-06T00:03:26;9.83;;;8.70;;
27728;SDS011;15126;42.186;24.340;2022-07-06T00:05:54;9.70;;;7.70;;
27728;SDS011;15126;42.186;24.340;2022-07-06T00:08:21;8.37;;;7.57;;
27728;SDS011;15126;42.186;24.340;2022-07-06T00:10:48;10.00;;;6.87;;
27728;SDS011;15126;42.186;24.340;2022-07-06T00:13:16;8.80;;;7.33;;
27728;SDS011;15126;42.186;24.340;2022-07-06T00:15:44;8.77;;;7.27;;
27728;SDS011;15126;42.186;24.340;2022-07-06T00:18:11;8.93;;;8.03;;
27728;SDS011;15126;42.186;24.340;2022-07-06T00:20:38;9.80;;;7.80;;
27728;SDS011;15126;42.186;24.340;2022-07-06T00:23:05;8.83;;;7.63;;
27728;SDS011;15126;42.186;24.340;2022-07-06T00:25:32;9.57;;;7.23;;
27728;SDS011;15126;42.186;24.340;2022-07-06T00:27:59;10.97;;;8.03;;
27728;SDS011;15126;42.186;24.340;2022-07-06T00:30:28;8.67;;;7.00;;
27728;SDS011;15126;42.186;24.340;2022-07-06T00:32:55;7.83;;;7.07;;
27728;SDS011;15126;42.186;24.340;2022-07-06T00:35:23;8.17;;;7.37;;
27728;SDS011;15126;42.186;24.340;2022-07-06T00:37:51;15.00;;;8.30;;
27728;SDS011;15126;42.186;24.340;2022-07-06T00:40:18;8.20;;;7.43;;
27728;SDS011;15126;42.186;24.340;2022-07-06T00:42:46;8.53;;;7.77;;
27728;SDS011;15126;42.186;24.340;2022-07-06T00:45:14;8.80;;;7.97;;
27728;SDS011;15126;42.186;24.340;2022-07-06T00:47:44;11.03;;;7.53;;
27728;SDS011;15126;42.186;24.340;2022-07-06T00:50:13;8.53;;;7.73;;
27728;SDS011;15126;42.186;24.340;2022-07-06T00:52:44;8.53;;;7.93;;
27728;SDS011;15126;42.186;24.340;2022-07-06T00:55:13;15.73;;;8.10;;
27728;SDS011;15126;42.186;24.340;2022-07-06T00:57:41;9.73;;;8.47;;
27728;SDS011;15126;42.186;24.340;2022-07-06T01:00:10;8.80;;;7.90;;
27728;SDS011;15126;42.186;24.340;2022-07-06T01:02:39;9.07;;;8.20;;
27728;SDS011;15126;42.186;24.340;2022-07-06T01:05:09;13.03;;;9.03;;
27728;SDS011;15126;42.186;24.340;2022-07-06T01:07:37;10.80;;;9.73;;
27728;SDS011;15126;42.186;24.340;2022-07-06T01:10:07;9.17;;;8.37;;
27728;SDS011;15126;42.186;24.340;2022-07-06T01:12:35;10.10;;;8.93;;
27728;SDS011;15126;42.186;24.340;2022-07-06T01:15:03;10.30;;;8.90;;
27728;SDS011;15126;42.186;24.340;2022-07-06T01:17:31;10.07;;;9.03;;
27728;SDS011;15126;42.186;24.340;2022-07-06T01:20:06;13.60;;;9.43;;
27728;SDS011;15126;42.186;24.340;2022-07-06T01:22:37;12.97;;;8.57;;
27728;SDS011;15126;42.186;24.340;2022-07-06T01:25:04;12.23;;;9.20;;
27728;SDS011;15126;42.186;24.340;2022-07-06T01:27:32;10.30;;;8.33;;
27728;SDS011;15126;42.186;24.340;2022-07-06T01:30:03;15.50;;;9.67;;
27728;SDS011;15126;42.186;24.340;2022-07-06T01:32:31;10.13;;;9.20;;
27728;SDS011;15126;42.186;24.340;2022-07-06T01:34:58;11.20;;;9.17;;
27728;SDS011;15126;42.186;24.340;2022-07-06T01:37:27;12.03;;;8.80;;
27728;SDS011;15126;42.186;24.340;2022-07-06T01:39:57;9.70;;;8.80;;
27728;SDS011;15126;42.186;24.340;2022-07-06T01:42:25;12.57;;;8.37;;
27728;SDS011;15126;42.186;24.340;2022-07-06T01:44:52;9.90;;;8.90;;
27728;SDS011;15126;42.186;24.340;2022-07-06T01:47:20;9.83;;;9.03;;
27728;SDS011;15126;42.186;24.340;2022-07-06T01:49:47;9.73;;;8.80;;
27728;SDS011;15126;42.186;24.340;2022-07-06T01:52:15;12.33;;;9.80;;
27728;SDS011;15126;42.186;24.340;2022-07-06T01:54:43;10.63;;;9.43;;
27728;SDS011;15126;42.186;24.340;2022-07-06T01:57:11;9.90;;;9.07;;
27728;SDS011;15126;42.186;24.340;2022-07-06T01:59:38;10.13;;;9.13;;
27728;SDS011;15126;42.186;24.340;2022-07-06T02:02:05;11.03;;;10.00;;
27728;SDS011;15126;42.186;24.340;2022-07-06T02:04:32;10.90;;;10.03;;
27728;SDS011;15126;42.186;24.340;2022-07-06T02:06:59;12.27;;;10.57;;
27728;SDS011;15126;42.186;24.340;2022-07-06T02:09:26;12.50;;;11.50;;
27728;SDS011;15126;42.186;24.340;2022-07-06T02:11:55;11.87;;;10.90;;
27728;SDS011;15126;42.186;24.340;2022-07-06T02:14:22;11.93;;;10.63;;
27728;SDS011;15126;42.186;24.340;2022-07-06T02:16:49;11.90;;;10.90;;
27728;SDS011;15126;42.186;24.340;2022-07-06T02:19:16;13.70;;;11.97;;
27728;SDS011;15126;42.186;24.340;2022-07-06T02:21:43;12.30;;;11.30;;
27728;SDS011;15126;42.186;24.340;2022-07-06T02:24:10;12.83;;;11.93;;
27728;SDS011;15126;42.186;24.340;2022-07-06T02:26:37;12.57;;;11.27;;
27728;SDS011;15126;42.186;24.340;2022-07-06T02:29:05;11.60;;;10.60;;
27728;SDS011;15126;42.186;24.340;2022-07-06T02:31:32;12.00;;;10.97;;
27728;SDS011;15126;42.186;24.340;2022-07-06T02:33:59;12.90;;;11.73;;
27728;SDS011;15126;42.186;24.340;2022-07-06T02:36:26;11.90;;;11.00;;
27728;SDS011;15126;42.186;24.340;2022-07-06T02:38:54;12.10;;;11.20;;
27728;SDS011;15126;42.186;24.340;2022-07-06T02:41:21;13.47;;;12.30;;
27728;SDS011;15126;42.186;24.340;2022-07-06T02:43:48;12.63;;;11.70;;
27728;SDS011;15126;42.186;24.340;2022-07-06T02:46:16;14.03;;;12.83;;
27728;SDS011;15126;42.186;24.340;2022-07-06T02:48:43;14.00;;;12.73;;
27728;SDS011;15126;42.186;24.340;2022-07-06T02:51:10;13.57;;;12.57;;
27728;SDS011;15126;42.186;24.340;2022-07-06T02:53:37;12.20;;;11.17;;
27728;SDS011;15126;42.186;24.340;2022-07-06T02:56:04;12.73;;;11.63;;
27728;SDS011;15126;42.186;24.340;2022-07-06T02:58:32;13.17;;;11.83;;
27728;SDS011;15126;42.186;24.340;2022-07-06T03:00:59;12.57;;;11.47;;
27728;SDS011;15126;42.186;24.340;2022-07-06T03:03:27;13.07;;;11.93;;
27728;SDS011;15126;42.186;24.340;2022-07-06T03:05:54;12.07;;;11.20;;
27728;SDS011;15126;42.186;24.340;2022-07-06T03:08:21;12.50;;;11.43;;
27728;SDS011;15126;42.186;24.340;2022-07-06T03:10:49;13.80;;;12.50;;
27728;SDS011;15126;42.186;24.340;2022-07-06T03:13:16;12.33;;;11.33;;
27728;SDS011;15126;42.186;24.340;2022-07-06T03:15:43;13.30;;;11.97;;
27728;SDS011;15126;42.186;24.340;2022-07-06T03:18:10;12.83;;;11.80;;
27728;SDS011;15126;42.186;24.340;2022-07-06T03:20:39;12.70;;;11.67;;
27728;SDS011;15126;42.186;24.340;2022-07-06T03:23:07;13.80;;;12.90;;
27728;SDS011;15126;42.186;24.340;2022-07-06T03:25:34;14.47;;;13.07;;
27728;SDS011;15126;42.186;24.340;2022-07-06T03:28:02;13.30;;;12.27;;
27728;SDS011;15126;42.186;24.340;2022-07-06T03:30:29;13.03;;;11.80;;
27728;SDS011;15126;42.186;24.340;2022-07-06T03:32:56;13.30;;;12.17;;
27728;SDS011;15126;42.186;24.340;2022-07-06T03:35:24;14.23;;;12.93;;
27728;SDS011;15126;42.186;24.340;2022-07-06T03:37:52;14.40;;;13.30;;
27728;SDS011;15126;42.186;24.340;2022-07-06T03:40:20;13.73;;;12.57;;
27728;SDS011;15126;42.186;24.340;2022-07-06T03:42:47;13.57;;;12.57;;
27728;SDS011;15126;42.186;24.340;2022-07-06T03:45:15;13.17;;;12.07;;
27728;SDS011;15126;42.186;24.340;2022-07-06T03:47:42;12.30;;;11.00;;
27728;SDS011;15126;42.186;24.340;2022-07-06T03:50:09;11.37;;;10.37;;
27728;SDS011;15126;42.186;24.340;2022-07-06T03:52:36;12.17;;;11.27;;
27728;SDS011;15126;42.186;24.340;2022-07-06T03:55:08;14.13;;;12.77;;
27728;SDS011;15126;42.186;24.340;2022-07-06T03:57:36;12.73;;;11.70;;
27728;SDS011;15126;42.186;24.340;2022-07-06T04:00:04;13.90;;;12.70;;
27728;SDS011;15126;42.186;24.340;2022-07-06T04:02:33;12.40;;;11.53;;
27728;SDS011;15126;42.186;24.340;2022-07-06T04:05:00;12.70;;;11.67;;
27728;SDS011;15126;42.186;24.340;2022-07-06T04:07:27;14.00;;;12.70;;
27728;SDS011;15126;42.186;24.340;2022-07-06T04:09:54;13.73;;;12.57;;
27728;SDS011;15126;42.186;24.340;2022-07-06T04:12:22;12.30;;;11.37;;
27728;SDS011;15126;42.186;24.340;2022-07-06T04:14:49;14.27;;;12.97;;
27728;SDS011;15126;42.186;24.340;2022-07-06T04:17:16;13.70;;;12.50;;
27728;SDS011;15126;42.186;24.340;2022-07-06T04:20:01;14.17;;;11.40;;
27728;SDS011;15126;42.186;24.340;2022-07-06T04:22:28;12.27;;;11.23;;
27728;SDS011;15126;42.186;24.340;2022-07-06T04:24:55;12.40;;;11.23;;
27728;SDS011;15126;42.186;24.340;2022-07-06T04:27:23;12.07;;;10.97;;
27728;SDS011;15126;42.186;24.340;2022-07-06T04:29:50;12.33;;;11.43;;
27728;SDS011;15126;42.186;24.340;2022-07-06T04:32:19;13.13;;;12.10;;
27728;SDS011;15126;42.186;24.340;2022-07-06T04:34:46;12.07;;;11.07;;
27728;SDS011;15126;42.186;24.340;2022-07-06T04:37:12;13.80;;;11.70;;
27728;SDS011;15126;42.186;24.340;2022-07-06T04:39:40;11.63;;;10.63;;
27728;SDS011;15126;42.186;24.340;2022-07-06T04:42:07;12.97;;;11.67;;
27728;SDS011;15126;42.186;24.340;2022-07-06T04:44:35;11.40;;;10.30;;
27728;SDS011;15126;42.186;24.340;2022-07-06T04:47:04;11.57;;;10.67;;
27728;SDS011;15126;42.186;24.340;2022-07-06T04:49:31;12.00;;;11.10;;
27728;SDS011;15126;42.186;24.340;2022-07-06T04:51:59;13.00;;;11.67;;
27728;SDS011;15126;42.186;24.340;2022-07-06T04:54:26;12.20;;;11.30;;
27728;SDS011;15126;42.186;24.340;2022-07-06T04:56:53;12.40;;;11.17;;
27728;SDS011;15126;42.186;24.340;2022-07-06T04:59:20;12.70;;;11.40;;
27728;SDS011;15126;42.186;24.340;2022-07-06T05:01:48;13.13;;;11.83;;
27728;SDS011;15126;42.186;24.340;2022-07-06T05:04:15;13.17;;;11.93;;
27728;SDS011;15126;42.186;24.340;2022-07-06T05:06:43;12.17;;;11.27;;
27728;SDS011;15126;42.186;24.340;2022-07-06T05:09:11;12.63;;;11.50;;
27728;SDS011;15126;42.186;24.340;2022-07-06T05:11:38;13.60;;;12.47;;
27728;SDS011;15126;42.186;24.340;2022-07-06T05:14:05;12.57;;;11.43;;
27728;SDS011;15126;42.186;24.340;2022-07-06T05:16:33;12.60;;;11.53;;
27728;SDS011;15126;42.186;24.340;2022-07-06T05:19:01;13.10;;;12.00;;
27728;SDS011;15126;42.186;24.340;2022-07-06T05:21:28;13.37;;;12.03;;
27728;SDS011;15126;42.186;24.340;2022-07-06T05:23:56;12.63;;;11.50;;
27728;SDS011;15126;42.186;24.340;2022-07-06T05:26:23;13.17;;;11.80;;
27728;SDS011;15126;42.186;24.340;2022-07-06T05:28:50;12.97;;;11.93;;
27728;SDS011;15126;42.186;24.340;2022-07-06T05:31:17;13.63;;;12.33;;
27728;SDS011;15126;42.186;24.340;2022-07-06T05:33:44;14.53;;;12.27;;
27728;SDS011;15126;42.186;24.340;2022-07-06T05:36:13;12.87;;;11.73;;
27728;SDS011;15126;42.186;24.340;2022-07-06T05:38:40;14.43;;;13.03;;
27728;SDS011;15126;42.186;24.340;2022-07-06T05:41:07;14.93;;;13.43;;
27728;SDS011;15126;42.186;24.340;2022-07-06T05:43:35;14.40;;;13.07;;
27728;SDS011;15126;42.186;24.340;2022-07-06T05:46:02;16.43;;;14.90;;
27728;SDS011;15126;42.186;24.340;2022-07-06T05:48:30;15.93;;;14.57;;
27728;SDS011;15126;42.186;24.340;2022-07-06T05:51:15;16.20;;;14.70;;
27728;SDS011;15126;42.186;24.340;2022-07-06T05:53:43;16.27;;;14.77;;
27728;SDS011;15126;42.186;24.340;2022-07-06T05:56:10;15.67;;;14.40;;
27728;SDS011;15126;42.186;24.340;2022-07-06T05:58:37;17.00;;;15.43;;
27728;SDS011;15126;42.186;24.340;2022-07-06T06:01:04;18.20;;;16.80;;
27728;SDS011;15126;42.186;24.340;2022-07-06T06:03:32;19.00;;;17.00;;
27728;SDS011;15126;42.186;24.340;2022-07-06T06:05:59;18.00;;;16.40;;
27728;SDS011;15126;42.186;24.340;2022-07-06T06:08:28;16.67;;;15.47;;
27728;SDS011;15126;42.186;24.340;2022-07-06T06:10:56;16.10;;;14.73;;
27728;SDS011;15126;42.186;24.340;2022-07-06T06:13:23;16.80;;;15.60;;
27728;SDS011;15126;42.186;24.340;2022-07-06T06:15:50;16.97;;;15.47;;
27728;SDS011;15126;42.186;24.340;2022-07-06T06:18:18;18.40;;;16.53;;
27728;SDS011;15126;42.186;24.340;2022-07-06T06:20:45;17.70;;;16.27;;
27728;SDS011;15126;42.186;24.340;2022-07-06T06:23:12;18.20;;;16.50;;
27728;SDS011;15126;42.186;24.340;2022-07-06T06:25:41;17.57;;;16.17;;
27728;SDS011;15126;42.186;24.340;2022-07-06T06:28:09;18.27;;;16.87;;
27728;SDS011;15126;42.186;24.340;2022-07-06T06:30:37;19.30;;;17.33;;
27728;SDS011;15126;42.186;24.340;2022-07-06T06:33:08;18.33;;;16.57;;
27728;SDS011;15126;42.186;24.340;2022-07-06T06:35:37;19.37;;;17.97;;
27728;SDS011;15126;42.186;24.340;2022-07-06T06:38:05;17.90;;;16.30;;
27728;SDS011;15126;42.186;24.340;2022-07-06T06:40:32;16.60;;;15.00;;
27728;SDS011;15126;42.186;24.340;2022-07-06T06:43:00;17.40;;;16.00;;
27728;SDS011;15126;42.186;24.340;2022-07-06T06:45:28;18.50;;;16.67;;
27728;SDS011;15126;42.186;24.340;2022-07-06T06:47:55;17.57;;;16.10;;
27728;SDS011;15126;42.186;24.340;2022-07-06T06:50:22;17.60;;;15.90;;
27728;SDS011;15126;42.186;24.340;2022-07-06T06:52:49;16.37;;;15.03;;
27728;SDS011;15126;42.186;24.340;2022-07-06T06:55:16;16.73;;;15.33;;
27728;SDS011;15126;42.186;24.340;2022-07-06T06:57:44;17.43;;;15.90;;
27728;SDS011;15126;42.186;24.340;2022-07-06T07:00:13;18.03;;;16.43;;
27728;SDS011;15126;42.186;24.340;2022-07-06T07:02:40;17.20;;;15.47;;
27728;SDS011;15126;42.186;24.340;2022-07-06T07:05:08;17.73;;;16.33;;
27728;SDS011;15126;42.186;24.340;2022-07-06T07:07:35;17.97;;;15.70;;
27728;SDS011;15126;42.186;24.340;2022-07-06T07:10:03;17.47;;;16.07;;
27728;SDS011;15126;42.186;24.340;2022-07-06T07:12:31;16.67;;;15.23;;
27728;SDS011;15126;42.186;24.340;2022-07-06T07:14:58;16.23;;;14.80;;
27728;SDS011;15126;42.186;24.340;2022-07-06T07:17:27;15.60;;;14.37;;
27728;SDS011;15126;42.186;24.340;2022-07-06T07:19:54;17.87;;;16.30;;
27728;SDS011;15126;42.186;24.340;2022-07-06T07:22:22;15.73;;;14.23;;
27728;SDS011;15126;42.186;24.340;2022-07-06T07:24:50;17.23;;;15.67;;
27728;SDS011;15126;42.186;24.340;2022-07-06T07:27:18;15.00;;;13.80;;
27728;SDS011;15126;42.186;24.340;2022-07-06T07:29:45;15.70;;;14.17;;
27728;SDS011;15126;42.186;24.340;2022-07-06T07:32:12;15.97;;;14.43;;
27728;SDS011;15126;42.186;24.340;2022-07-06T07:34:40;15.40;;;14.10;;
27728;SDS011;15126;42.186;24.340;2022-07-06T07:37:07;16.30;;;13.37;;
27728;SDS011;15126;42.186;24.340;2022-07-06T07:39:35;14.63;;;13.33;;
27728;SDS011;15126;42.186;24.340;2022-07-06T07:42:02;16.33;;;13.57;;
27728;SDS011;15126;42.186;24.340;2022-07-06T07:44:30;13.33;;;12.10;;
27728;SDS011;15126;42.186;24.340;2022-07-06T07:46:57;14.50;;;13.20;;
27728;SDS011;15126;42.186;24.340;2022-07-06T07:49:24;14.03;;;12.70;;
27728;SDS011;15126;42.186;24.340;2022-07-06T07:51:53;15.40;;;13.80;;
27728;SDS011;15126;42.186;24.340;2022-07-06T07:54:20;13.67;;;12.50;;
27728;SDS011;15126;42.186;24.340;2022-07-06T07:56:47;13.60;;;12.40;;
27728;SDS011;15126;42.186;24.340;2022-07-06T07:59:14;13.53;;;12.43;;
27728;SDS011;15126;42.186;24.340;2022-07-06T08:01:41;12.87;;;11.83;;
27728;SDS011;15126;42.186;24.340;2022-07-06T08:04:09;13.83;;;12.53;;
27728;SDS011;15126;42.186;24.340;2022-07-06T08:06:36;14.10;;;12.87;;
27728;SDS011;15126;42.186;24.340;2022-07-06T08:09:04;13.33;;;12.17;;
27728;SDS011;15126;42.186;24.340;2022-07-06T08:11:32;14.57;;;13.27;;
27728;SDS011;15126;42.186;24.340;2022-07-06T08:13:59;13.90;;;12.77;;
27728;SDS011;15126;42.186;24.340;2022-07-06T08:16:27;13.77;;;12.52;;
27728;SDS011;15126;42.186;24.340;2022-07-06T08:18:54;20.60;;;13.43;;
27728;SDS011;15126;42.186;24.340;2022-07-06T08:21:21;15.63;;;12.97;;
27728;SDS011;15126;42.186;24.340;2022-07-06T08:23:49;13.05;;;12.05;;
27728;SDS011;15126;42.186;24.340;2022-07-06T08:26:17;12.68;;;11.55;;
27728;SDS011;15126;42.186;24.340;2022-07-06T08:28:44;12.63;;;11.65;;
27728;SDS011;15126;42.186;24.340;2022-07-06T08:31:12;12.90;;;11.68;;
27728;SDS011;15126;42.186;24.340;2022-07-06T08:33:39;12.93;;;10.65;;
27728;SDS011;15126;42.186;24.340;2022-07-06T08:36:06;13.40;;;10.32;;
27728;SDS011;15126;42.186;24.340;2022-07-06T08:38:34;11.40;;;9.90;;
27728;SDS011;15126;42.186;24.340;2022-07-06T08:41:01;14.02;;;11.13;;
27728;SDS011;15126;42.186;24.340;2022-07-06T08:43:32;10.82;;;9.00;;
27728;SDS011;15126;42.186;24.340;2022-07-06T08:46:01;14.02;;;9.55;;
27728;SDS011;15126;42.186;24.340;2022-07-06T08:48:28;11.40;;;10.45;;
27728;SDS011;15126;42.186;24.340;2022-07-06T08:51:02;11.40;;;10.30;;
27728;SDS011;15126;42.186;24.340;2022-07-06T08:53:31;11.45;;;10.55;;
27728;SDS011;15126;42.186;24.340;2022-07-06T08:55:58;11.05;;;9.75;;
27728;SDS011;15126;42.186;24.340;2022-07-06T08:58:27;12.57;;;9.88;;
27728;SDS011;15126;42.186;24.340;2022-07-06T09:00:56;12.70;;;11.25;;
27728;SDS011;15126;42.186;24.340;2022-07-06T09:03:23;12.50;;;10.63;;
27728;SDS011;15126;42.186;24.340;2022-07-06T09:05:52;10.55;;;9.48;;
27728;SDS011;15126;42.186;24.340;2022-07-06T09:08:22;10.55;;;9.85;;
27728;SDS011;15126;42.186;24.340;2022-07-06T09:10:53;11.52;;;10.73;;
27728;SDS011;15126;42.186;24.340;2022-07-06T09:13:21;10.95;;;10.05;;
27728;SDS011;15126;42.186;24.340;2022-07-06T09:15:48;11.27;;;10.27;;
27728;SDS011;15126;42.186;24.340;2022-07-06T09:18:16;11.23;;;10.25;;
27728;SDS011;15126;42.186;24.340;2022-07-06T09:20:43;12.93;;;11.57;;
27728;SDS011;15126;42.186;24.340;2022-07-06T09:23:11;12.30;;;11.10;;
27728;SDS011;15126;42.186;24.340;2022-07-06T09:25:42;13.18;;;12.05;;
27728;SDS011;15126;42.186;24.340;2022-07-06T09:28:15;12.35;;;11.45;;
27728;SDS011;15126;42.186;24.340;2022-07-06T09:30:43;15.60;;;12.38;;
27728;SDS011;15126;42.186;24.340;2022-07-06T09:33:11;12.65;;;11.55;;
27728;SDS011;15126;42.186;24.340;2022-07-06T09:35:45;12.75;;;11.55;;
27728;SDS011;15126;42.186;24.340;2022-07-06T09:38:13;12.77;;;11.23;;
27728;SDS011;15126;42.186;24.340;2022-07-06T09:40:41;12.50;;;11.35;;
27728;SDS011;15126;42.186;24.340;2022-07-06T09:43:10;13.00;;;11.80;;
27728;SDS011;15126;42.186;24.340;2022-07-06T09:45:40;11.43;;;10.63;;
27728;SDS011;15126;42.186;24.340;2022-07-06T09:48:08;11.75;;;10.73;;
27728;SDS011;15126;42.186;24.340;2022-07-06T09:50:42;12.00;;;10.98;;
27728;SDS011;15126;42.186;24.340;2022-07-06T09:53:10;11.82;;;11.00;;
27728;SDS011;15126;42.186;24.340;2022-07-06T09:55:38;11.93;;;10.88;;
27728;SDS011;15126;42.186;24.340;2022-07-06T09:58:09;11.85;;;10.85;;
27728;SDS011;15126;42.186;24.340;2022-07-06T10:00:36;10.20;;;9.50;;
27728;SDS011;15126;42.186;24.340;2022-07-06T10:03:04;12.63;;;11.73;;
27728;SDS011;15126;42.186;24.340;2022-07-06T10:05:32;11.48;;;10.35;;
27728;SDS011;15126;42.186;24.340;2022-07-06T10:08:00;10.75;;;9.85;;
27728;SDS011;15126;42.186;24.340;2022-07-06T10:10:31;13.00;;;11.93;;
27728;SDS011;15126;42.186;24.340;2022-07-06T10:12:59;11.65;;;10.88;;
27728;SDS011;15126;42.186;24.340;2022-07-06T10:15:27;11.63;;;10.52;;
27728;SDS011;15126;42.186;24.340;2022-07-06T10:17:57;11.48;;;10.65;;
27728;SDS011;15126;42.186;24.340;2022-07-06T10:20:26;11.98;;;11.15;;
27728;SDS011;15126;42.186;24.340;2022-07-06T10:22:55;13.52;;;12.50;;
27728;SDS011;15126;42.186;24.340;2022-07-06T10:25:27;12.20;;;10.82;;
27728;SDS011;15126;42.186;24.340;2022-07-06T10:27:54;12.35;;;10.98;;
27728;SDS011;15126;42.186;24.340;2022-07-06T10:30:22;12.00;;;11.13;;
27728;SDS011;15126;42.186;24.340;2022-07-06T10:32:51;12.80;;;11.77;;
27728;SDS011;15126;42.186;24.340;2022-07-06T10:35:21;14.40;;;12.75;;
27728;SDS011;15126;42.186;24.340;2022-07-06T10:38:02;14.23;;;12.57;;
27728;SDS011;15126;42.186;24.340;2022-07-06T10:40:35;11.88;;;11.07;;
27728;SDS011;15126;42.186;24.340;2022-07-06T10:43:21;13.35;;;12.23;;
27728;SDS011;15126;42.186;24.340;2022-07-06T10:45:51;12.23;;;11.23;;
27728;SDS011;15126;42.186;24.340;2022-07-06T10:48:22;13.88;;;12.65;;
27728;SDS011;15126;42.186;24.340;2022-07-06T10:50:50;12.23;;;11.35;;
27728;SDS011;15126;42.186;24.340;2022-07-06T10:53:22;12.80;;;11.70;;
27728;SDS011;15126;42.186;24.340;2022-07-06T10:55:52;12.45;;;11.65;;
27728;SDS011;15126;42.186;24.340;2022-07-06T10:58:39;12.52;;;11.55;;
27728;SDS011;15126;42.186;24.340;2022-07-06T11:01:08;12.45;;;11.30;;
27728;SDS011;15126;42.186;24.340;2022-07-06T11:03:37;20.33;;;13.27;;
27728;SDS011;15126;42.186;24.340;2022-07-06T11:06:11;15.60;;;14.40;;
27728;SDS011;15126;42.186;24.340;2022-07-06T11:08:45;15.40;;;13.95;;
27728;SDS011;15126;42.186;24.340;2022-07-06T11:11:23;16.23;;;14.68;;
27728;SDS011;15126;42.186;24.340;2022-07-06T11:13:53;16.90;;;15.40;;
27728;SDS011;15126;42.186;24.340;2022-07-06T11:16:22;15.32;;;14.13;;
27728;SDS011;15126;42.186;24.340;2022-07-06T11:18:59;15.73;;;14.38;;
27728;SDS011;15126;42.186;24.340;2022-07-06T11:21:34;16.77;;;15.57;;
27728;SDS011;15126;42.186;24.340;2022-07-06T11:24:06;15.68;;;13.88;;
27728;SDS011;15126;42.186;24.340;2022-07-06T11:26:36;17.00;;;15.25;;
27728;SDS011;15126;42.186;24.340;2022-07-06T11:29:04;17.42;;;14.57;;
27728;SDS011;15126;42.186;24.340;2022-07-06T11:31:33;14.95;;;13.63;;
27728;SDS011;15126;42.186;24.340;2022-07-06T11:34:02;16.63;;;14.27;;
27728;SDS011;15126;42.186;24.340;2022-07-06T11:36:30;15.73;;;14.43;;
27728;SDS011;15126;42.186;24.340;2022-07-06T11:38:58;15.65;;;14.45;;
27728;SDS011;15126;42.186;24.340;2022-07-06T11:41:26;14.73;;;13.32;;
27728;SDS011;15126;42.186;24.340;2022-07-06T11:43:54;15.02;;;13.90;;
27728;SDS011;15126;42.186;24.340;2022-07-06T11:46:22;15.32;;;13.98;;
27728;SDS011;15126;42.186;24.340;2022-07-06T11:48:51;14.82;;;13.73;;
27728;SDS011;15126;42.186;24.340;2022-07-06T11:51:20;15.73;;;14.48;;
27728;SDS011;15126;42.186;24.340;2022-07-06T11:53:49;14.13;;;13.02;;
27728;SDS011;15126;42.186;24.340;2022-07-06T11:56:17;14.80;;;13.43;;
27728;SDS011;15126;42.186;24.340;2022-07-06T11:58:46;14.63;;;13.43;;
27728;SDS011;15126;42.186;24.340;2022-07-06T12:01:17;15.52;;;14.20;;
27728;SDS011;15126;42.186;24.340;2022-07-06T12:03:45;15.18;;;13.50;;
27728;SDS011;15126;42.186;24.340;2022-07-06T12:06:13;13.95;;;12.80;;
27728;SDS011;15126;42.186;24.340;2022-07-06T12:08:41;14.48;;;13.32;;
27728;SDS011;15126;42.186;24.340;2022-07-06T12:11:09;13.63;;;12.57;;
27728;SDS011;15126;42.186;24.340;2022-07-06T12:13:39;13.35;;;12.45;;
27728;SDS011;15126;42.186;24.340;2022-07-06T12:16:09;12.45;;;11.38;;
27728;SDS011;15126;42.186;24.340;2022-07-06T12:18:38;13.23;;;11.90;;
27728;SDS011;15126;42.186;24.340;2022-07-06T12:21:08;13.65;;;12.65;;
27728;SDS011;15126;42.186;24.340;2022-07-06T12:23:40;14.55;;;13.30;;
27728;SDS011;15126;42.186;24.340;2022-07-06T12:26:08;12.27;;;11.23;;
27728;SDS011;15126;42.186;24.340;2022-07-06T12:28:36;13.82;;;12.63;;
27728;SDS011;15126;42.186;24.340;2022-07-06T12:31:03;12.77;;;11.57;;
27728;SDS011;15126;42.186;24.340;2022-07-06T12:33:31;12.30;;;11.32;;
27728;SDS011;15126;42.186;24.340;2022-07-06T12:36:09;13.05;;;12.13;;
27728;SDS011;15126;42.186;24.340;2022-07-06T12:38:46;13.02;;;11.82;;
27728;SDS011;15126;42.186;24.340;2022-07-06T12:44:10;14.02;;;12.63;;
27728;SDS011;15126;42.186;24.340;2022-07-06T12:46:38;13.48;;;12.25;;
27728;SDS011;15126;42.186;24.340;2022-07-06T12:49:13;13.02;;;11.90;;
27728;SDS011;15126;42.186;24.340;2022-07-06T12:51:49;13.60;;;12.50;;
27728;SDS011;15126;42.186;24.340;2022-07-06T12:54:34;13.52;;;12.25;;
27728;SDS011;15126;42.186;24.340;2022-07-06T12:57:06;14.43;;;13.07;;
27728;SDS011;15126;42.186;24.340;2022-07-06T12:59:38;14.10;;;12.85;;
27728;SDS011;15126;42.186;24.340;2022-07-06T13:02:07;12.73;;;11.77;;
27728;SDS011;15126;42.186;24.340;2022-07-06T13:04:36;12.27;;;11.38;;
27728;SDS011;15126;42.186;24.340;2022-07-06T13:07:06;20.52;;;15.48;;
27728;SDS011;15126;42.186;24.340;2022-07-06T13:09:33;19.60;;;14.15;;
27728;SDS011;15126;42.186;24.340;2022-07-06T13:12:00;15.30;;;13.73;;
27728;SDS011;15126;42.186;24.340;2022-07-06T13:14:27;12.60;;;10.95;;
27728;SDS011;15126;42.186;24.340;2022-07-06T13:16:54;11.40;;;10.20;;
27728;SDS011;15126;42.186;24.340;2022-07-06T13:19:21;9.90;;;9.07;;
27728;SDS011;15126;42.186;24.340;2022-07-06T13:21:48;10.48;;;9.57;;
27728;SDS011;15126;42.186;24.340;2022-07-06T13:24:16;12.48;;;11.48;;
27728;SDS011;15126;42.186;24.340;2022-07-06T13:26:43;16.63;;;15.32;;
27728;SDS011;15126;42.186;24.340;2022-07-06T13:29:11;17.92;;;16.35;;
27728;SDS011;15126;42.186;24.340;2022-07-06T13:31:39;16.83;;;15.43;;
27728;SDS011;15126;42.186;24.340;2022-07-06T13:34:06;18.83;;;16.98;;
27728;SDS011;15126;42.186;24.340;2022-07-06T13:36:34;18.02;;;16.52;;
27728;SDS011;15126;42.186;24.340;2022-07-06T13:39:02;19.45;;;17.60;;
27728;SDS011;15126;42.186;24.340;2022-07-06T13:41:30;19.35;;;17.67;;
27728;SDS011;15126;42.186;24.340;2022-07-06T13:43:57;18.50;;;16.98;;
27728;SDS011;15126;42.186;24.340;2022-07-06T13:46:25;17.65;;;16.05;;
27728;SDS011;15126;42.186;24.340;2022-07-06T13:48:53;19.30;;;17.73;;
27728;SDS011;15126;42.186;24.340;2022-07-06T13:51:21;18.00;;;16.42;;
27728;SDS011;15126;42.186;24.340;2022-07-06T13:53:48;18.92;;;17.25;;
27728;SDS011;15126;42.186;24.340;2022-07-06T13:56:15;18.63;;;17.02;;
27728;SDS011;15126;42.186;24.340;2022-07-06T13:58:44;18.63;;;16.70;;
27728;SDS011;15126;42.186;24.340;2022-07-06T14:01:12;17.67;;;16.38;;
27728;SDS011;15126;42.186;24.340;2022-07-06T14:03:39;18.65;;;17.00;;
27728;SDS011;15126;42.186;24.340;2022-07-06T14:06:06;16.83;;;15.50;;
27728;SDS011;15126;42.186;24.340;2022-07-06T14:08:34;15.30;;;13.85;;
27728;SDS011;15126;42.186;24.340;2022-07-06T14:11:03;18.05;;;15.85;;
27728;SDS011;15126;42.186;24.340;2022-07-06T14:13:31;14.32;;;13.13;;
27728;SDS011;15126;42.186;24.340;2022-07-06T14:16:00;15.27;;;14.05;;
27728;SDS011;15126;42.186;24.340;2022-07-06T14:18:27;14.50;;;13.13;;
27728;SDS011;15126;42.186;24.340;2022-07-06T14:20:54;14.73;;;13.43;;